Time;durP1;ratioP1;P1;durP2;ratioP2;P2;SDS_P1;SDS_P2;PMS_P1;PMS_P2;Temp;Humidity;BMP_temperature;BMP_pressure;BME280_temperature;BME280_humidity;BME280_pressure;Samples;Min_cycle;Max_cycle;Signal;HPM_P1;HPM_P2
2022/03/18 00:00:40;;;;;;;8.70;4.97;;;;;;;8.21;96.79;103207.47;5061506;28;20577;-50
2022/03/18 00:03:07;;;;;;;6.80;4.07;;;;;;;8.11;96.36;103215.72;5068062;28;20327;-51
2022/03/18 00:05:35;;;;;;;8.83;4.77;;;;;;;8.15;96.09;103212.41;5057940;28;20263;-50
2022/03/18 00:08:02;;;;;;;6.73;4.67;;;;;;;8.09;96.68;103214.72;5070321;28;20223;-51
2022/03/18 00:10:29;;;;;;;6.93;4.83;;;;;;;8.07;97.10;103218.97;5061407;28;20227;-52
2022/03/18 00:12:55;;;;;;;4.97;4.23;;;;;;;8.05;97.18;103213.69;5058162;28;20229;-52
2022/03/18 00:15:23;;;;;;;5.13;4.13;;;;;;;8.02;97.36;103221.38;5060432;28;20318;-52
2022/03/18 00:17:50;;;;;;;8.60;5.03;;;;;;;8.03;97.06;103222.25;5058988;28;20314;-52
2022/03/18 00:20:18;;;;;;;8.37;4.27;;;;;;;8.08;97.41;103219.06;5053575;27;20323;-52
2022/03/18 00:22:45;;;;;;;6.90;3.97;;;;;;;8.21;96.25;103222.25;5059751;28;20235;-52
2022/03/18 00:25:13;;;;;;;8.50;4.37;;;;;;;8.10;96.71;103227.88;5056882;28;20235;-52
2022/03/18 00:27:39;;;;;;;5.07;4.33;;;;;;;8.06;97.01;103227.66;5058782;27;20322;-52
2022/03/18 00:30:07;;;;;;;7.57;4.07;;;;;;;7.96;97.79;103231.53;5069059;28;20276;-52
2022/03/18 00:32:34;;;;;;;14.40;5.17;;;;;;;8.00;97.91;103233.50;5062677;28;20227;-51
2022/03/18 00:35:00;;;;;;;9.00;4.90;;;;;;;8.12;97.50;103234.09;5067350;28;20254;-52
2022/03/18 00:37:28;;;;;;;7.13;4.20;;;;;;;8.01;97.70;103234.38;5058686;28;20235;-55
2022/03/18 00:39:54;;;;;;;5.70;4.30;;;;;;;8.01;97.76;103240.50;5066127;28;20247;-52
2022/03/18 00:42:21;;;;;;;5.67;5.03;;;;;;;7.95;97.78;103237.59;5064127;28;20242;-51
2022/03/18 00:44:48;;;;;;;7.50;4.73;;;;;;;7.99;98.33;103246.47;5067778;28;20837;-51
2022/03/18 00:52:43;;;;;;;6.30;4.20;;;;;;;8.03;97.91;103248.44;5062280;28;20266;-51
2022/03/18 00:55:10;;;;;;;6.67;3.57;;;;;;;7.97;98.26;103246.41;5068479;28;20250;-51
2022/03/18 00:57:37;;;;;;;6.27;3.40;;;;;;;7.93;98.36;103247.06;5070583;28;20237;-52
2022/03/18 01:00:04;;;;;;;7.93;4.67;;;;;;;7.89;98.76;103245.13;5071668;28;20229;-52
2022/03/18 01:02:30;;;;;;;8.67;3.73;;;;;;;7.99;98.24;103254.34;5065458;28;20312;-52
2022/03/18 01:04:57;;;;;;;8.57;4.57;;;;;;;7.96;98.45;103262.03;5070948;28;20227;-52
2022/03/18 01:07:23;;;;;;;6.60;3.93;;;;;;;7.99;97.75;103255.22;5066566;28;20247;-52
2022/03/18 01:09:51;;;;;;;7.40;4.17;;;;;;;8.01;97.51;103260.56;5070570;28;20292;-52
2022/03/18 01:12:17;;;;;;;9.90;4.10;;;;;;;7.98;98.19;103265.63;5061346;28;20239;-51
2022/03/18 01:14:44;;;;;;;7.20;5.13;;;;;;;7.98;98.31;103261.28;5069776;28;20992;-52
2022/03/18 01:17:10;;;;;;;6.57;3.77;;;;;;;7.94;98.18;103264.56;5070784;28;20384;-52
2022/03/18 01:19:36;;;;;;;6.90;4.03;;;;;;;7.92;98.29;103267.94;5069946;28;20250;-53
2022/03/18 01:22:03;;;;;;;6.73;3.67;;;;;;;7.96;97.54;103270.75;5068946;27;20231;-53
2022/03/18 01:24:29;;;;;;;4.87;4.00;;;;;;;7.84;97.58;103267.53;5065271;28;20227;-52
2022/03/18 01:26:57;;;;;;;9.00;4.20;;;;;;;7.85;97.96;103269.31;5060166;28;20227;-52
2022/03/18 01:29:23;;;;;;;7.40;4.00;;;;;;;7.79;97.51;103279.47;5076176;28;20313;-52
2022/03/18 01:31:49;;;;;;;5.80;4.17;;;;;;;7.74;97.92;103286.19;5075985;28;20289;-53
2022/03/18 01:34:16;;;;;;;6.20;3.80;;;;;;;7.75;97.92;103283.63;5073136;28;20235;-51
2022/03/18 01:36:42;;;;;;;8.17;4.13;;;;;;;7.76;97.06;103289.81;5073980;28;20273;-51
2022/03/18 01:39:09;;;;;;;5.97;3.87;;;;;;;7.82;97.46;103285.75;5071686;28;20239;-53
2022/03/18 01:41:35;;;;;;;6.73;3.63;;;;;;;7.83;97.00;103289.28;5064048;28;20663;-52
2022/03/18 01:44:03;;;;;;;7.27;4.27;;;;;;;7.86;96.33;103292.03;5066123;28;20270;-52
2022/03/18 01:46:29;;;;;;;7.73;4.07;;;;;;;7.81;96.33;103294.44;5066166;28;20223;-52
2022/03/18 01:48:55;;;;;;;10.23;4.47;;;;;;;7.79;95.67;103303.00;5078227;28;20255;-53
2022/03/18 01:51:22;;;;;;;9.60;4.20;;;;;;;7.68;96.05;103296.31;5081002;28;20262;-52
2022/03/18 01:54:44;;;;;;;4.63;3.53;;;;;;;7.62;96.62;103303.03;5069485;28;20686;-53
2022/03/18 01:56:35;;;;;;;10.07;3.53;;;;;;;7.81;95.74;103298.75;5072373;28;20231;-52
2022/03/18 01:59:03;;;;;;;8.17;3.47;;;;;;;7.83;94.85;103307.59;5068173;28;20238;-52
2022/03/18 02:01:30;;;;;;;9.60;4.13;;;;;;;7.87;94.70;103307.81;5065318;28;20258;-52
2022/03/18 02:03:56;;;;;;;7.53;3.93;;;;;;;7.80;94.26;103302.22;5076145;28;20226;-52
2022/03/18 02:06:23;;;;;;;13.43;3.63;;;;;;;7.77;94.43;103304.66;5072659;28;20239;-52
2022/03/18 02:08:49;;;;;;;8.47;3.70;;;;;;;7.78;94.73;103312.56;5065343;28;20232;-53
2022/03/18 02:11:16;;;;;;;5.37;3.70;;;;;;;7.79;94.40;103321.31;5068086;28;20269;-51
2022/03/18 02:13:42;;;;;;;5.90;3.20;;;;;;;7.80;94.26;103323.13;5069003;28;20277;-52
2022/03/18 02:16:10;;;;;;;10.33;4.00;;;;;;;7.75;93.93;103327.19;5064971;28;20246;-52
2022/03/18 02:18:36;;;;;;;5.93;2.77;;;;;;;7.75;93.74;103324.59;5065765;28;20230;-53
2022/03/18 02:21:03;;;;;;;7.27;3.70;;;;;;;7.68;93.49;103336.44;5073005;28;20227;-53
2022/03/18 02:23:30;;;;;;;8.67;3.40;;;;;;;7.69;92.28;103332.09;5068368;28;20315;-53
2022/03/18 02:25:57;;;;;;;6.53;3.23;;;;;;;7.64;92.05;103338.00;5070092;28;20257;-53
2022/03/18 02:28:23;;;;;;;7.90;3.53;;;;;;;7.70;91.80;103331.31;5067576;28;20289;-53
2022/03/18 02:30:49;;;;;;;5.87;3.20;;;;;;;7.71;91.67;103338.31;5064750;28;20247;-52
2022/03/18 02:33:17;;;;;;;6.07;2.93;;;;;;;7.74;90.53;103333.25;5063435;28;20262;-52
2022/03/18 02:35:43;;;;;;;6.87;3.17;;;;;;;7.75;90.76;103335.06;5065001;28;20271;-54
2022/03/18 02:38:09;;;;;;;6.33;3.70;;;;;;;7.80;90.86;103338.81;5066473;28;20711;-52
2022/03/18 02:40:37;;;;;;;4.60;2.40;;;;;;;7.79;90.61;103342.22;5066398;28;20250;-54
2022/03/18 02:43:03;;;;;;;5.80;2.63;;;;;;;7.77;90.22;103343.88;5067262;28;20227;-53
2022/03/18 02:45:31;;;;;;;7.10;2.73;;;;;;;7.82;89.21;103345.00;5068602;28;20711;-52
2022/03/18 02:47:58;;;;;;;7.90;3.17;;;;;;;7.74;89.94;103354.19;5063548;28;20231;-54
2022/03/18 02:50:24;;;;;;;4.90;2.93;;;;;;;7.74;89.99;103359.41;5065293;28;20785;-57
2022/03/18 02:52:50;;;;;;;10.83;3.17;;;;;;;7.73;89.95;103363.75;5064834;28;20230;-52
2022/03/18 02:55:18;;;;;;;9.10;3.47;;;;;;;7.76;89.35;103368.25;5064689;28;20262;-52
2022/03/18 02:57:46;;;;;;;4.37;2.70;;;;;;;7.71;89.62;103370.59;5060240;28;20258;-53
2022/03/18 03:00:12;;;;;;;8.63;4.63;;;;;;;7.59;89.26;103363.00;5069579;28;20258;-53
2022/03/18 03:02:39;;;;;;;5.17;3.33;;;;;;;7.64;88.82;103374.59;5068246;28;20243;-53
2022/03/18 03:08:02;;;;;;;11.03;4.20;;;;;;;7.60;88.74;103375.25;5066798;28;20369;-52
2022/03/18 03:10:29;;;;;;;10.43;4.63;;;;;;;7.70;88.29;103383.59;5054078;28;20235;-52
2022/03/18 03:12:57;;;;;;;8.87;3.33;;;;;;;7.62;88.19;103380.59;5061634;28;20814;-53
2022/03/18 03:15:24;;;;;;;11.37;3.70;;;;;;;7.58;88.83;103387.38;5068087;28;20245;-52
2022/03/18 03:17:50;;;;;;;5.30;2.90;;;;;;;7.55;88.87;103396.75;5062433;28;20277;-53
2022/03/18 03:20:16;;;;;;;5.33;2.90;;;;;;;7.47;89.35;103393.69;5063672;28;20243;-52
2022/03/18 03:22:43;;;;;;;8.77;3.30;;;;;;;7.59;89.19;103401.34;5065319;28;20224;-53
2022/03/18 03:25:09;;;;;;;7.70;2.90;;;;;;;7.58;88.26;103395.22;5069059;28;20246;-54
2022/03/18 03:27:35;;;;;;;13.33;3.00;;;;;;;7.51;87.99;103402.63;5066229;27;20223;-53
2022/03/18 03:30:05;;;;;;;10.90;3.30;;;;;;;7.52;88.36;103405.31;5069090;28;20739;-53
2022/03/18 03:32:32;;;;;;;7.77;2.97;;;;;;;7.53;88.59;103407.13;5066053;28;20255;-53
2022/03/18 03:34:59;;;;;;;2.80;2.43;;;;;;;7.58;88.28;103415.19;5067870;28;20242;-54
2022/03/18 03:37:26;;;;;;;7.70;2.37;;;;;;;7.60;87.89;103418.81;5065784;28;20255;-52
2022/03/18 03:39:53;;;;;;;6.73;2.47;;;;;;;7.61;88.06;103418.88;5062912;28;20280;-51
2022/03/18 03:42:19;;;;;;;9.70;3.27;;;;;;;7.63;87.88;103419.88;5067708;28;20238;-53
2022/03/18 03:44:46;;;;;;;3.93;3.33;;;;;;;7.70;87.18;103428.06;5074408;28;20262;-53
2022/03/18 03:47:14;;;;;;;6.70;3.03;;;;;;;7.61;87.54;103431.94;5066038;28;20224;-52
2022/03/18 03:49:40;;;;;;;6.27;2.70;;;;;;;7.57;87.50;103435.22;5064101;28;20441;-54
2022/03/18 03:52:08;;;;;;;7.20;2.93;;;;;;;7.50;87.68;103433.09;5066575;28;20251;-50
2022/03/18 03:54:34;;;;;;;5.23;2.97;;;;;;;7.61;86.91;103426.72;5067453;28;20235;-51
2022/03/18 03:57:00;;;;;;;7.10;2.97;;;;;;;7.64;86.82;103432.13;5066259;27;20675;-51
2022/03/18 03:59:27;;;;;;;5.43;2.77;;;;;;;7.61;86.60;103431.94;5064963;28;20259;-51
2022/03/18 04:01:53;;;;;;;7.13;2.70;;;;;;;7.52;86.93;103426.25;5065899;28;20308;-53
2022/03/18 04:04:21;;;;;;;7.60;2.97;;;;;;;7.49;87.14;103426.06;5071013;28;20230;-52
2022/03/18 04:06:48;;;;;;;8.00;2.57;;;;;;;7.46;87.20;103430.22;5065810;28;20270;-51
2022/03/18 04:09:15;;;;;;;5.40;2.60;;;;;;;7.48;86.45;103429.50;5071228;28;20226;-52
2022/03/18 04:11:41;;;;;;;8.87;2.73;;;;;;;7.37;86.07;103433.22;5067362;28;20239;-50
2022/03/18 04:14:07;;;;;;;7.00;2.90;;;;;;;7.41;86.89;103443.94;5072013;28;20254;-52
2022/03/18 04:16:34;;;;;;;11.80;3.27;;;;;;;7.42;86.91;103444.84;5066002;28;20246;-51
2022/03/18 04:19:00;;;;;;;9.10;3.10;;;;;;;7.60;85.97;103448.47;5060574;28;20235;-51
2022/03/18 04:21:28;;;;;;;5.10;2.97;;;;;;;7.50;86.03;103458.34;5066238;28;20259;-52
2022/03/18 04:23:54;;;;;;;5.83;3.17;;;;;;;7.52;86.07;103462.84;5066707;28;20227;-52
2022/03/18 04:26:21;;;;;;;6.07;2.63;;;;;;;7.55;86.34;103457.78;5067798;28;20250;-51
2022/03/18 04:28:47;;;;;;;5.53;2.33;;;;;;;7.50;86.75;103461.84;5056713;28;20261;-53
2022/03/18 04:31:13;;;;;;;12.10;2.70;;;;;;;7.45;87.36;103465.94;5060147;28;20308;-51
2022/03/18 04:33:40;;;;;;;6.30;2.20;;;;;;;7.45;87.20;103465.03;5066683;28;20251;-49
2022/03/18 04:36:06;;;;;;;7.53;2.23;;;;;;;7.43;87.40;103472.78;5066815;28;20235;-53
2022/03/18 04:38:34;;;;;;;11.87;3.63;;;;;;;7.56;86.63;103472.66;5065270;28;20691;-54
2022/03/18 04:41:00;;;;;;;10.10;3.07;;;;;;;7.56;86.34;103479.59;5067362;28;20311;-53
2022/03/18 04:43:26;;;;;;;4.67;2.27;;;;;;;7.50;86.43;103479.25;5066725;28;20254;-54
2022/03/18 04:45:53;;;;;;;5.53;1.83;;;;;;;7.36;86.92;103487.19;5067079;28;20254;-52
2022/03/18 04:48:19;;;;;;;6.27;2.40;;;;;;;7.37;87.40;103490.72;5064685;28;20227;-52
2022/03/18 04:50:46;;;;;;;8.17;2.87;;;;;;;7.39;87.31;103495.22;5058696;28;20311;-54
2022/03/18 04:53:12;;;;;;;6.17;2.37;;;;;;;7.36;87.14;103491.53;5066832;28;20235;-52
2022/03/18 04:55:40;;;;;;;5.63;2.73;;;;;;;7.29;86.77;103495.50;5064664;28;20231;-52
2022/03/18 04:58:06;;;;;;;7.20;2.60;;;;;;;7.15;86.98;103502.56;5065522;28;20262;-54
2022/03/18 05:00:32;;;;;;;7.17;3.10;;;;;;;7.03;87.40;103503.59;5058852;28;20251;-53
2022/03/18 05:02:59;;;;;;;9.77;3.03;;;;;;;7.05;86.92;103504.56;5063129;28;20235;-53
2022/03/18 05:05:25;;;;;;;8.23;3.13;;;;;;;6.93;87.10;103504.75;5067300;28;20258;-54
2022/03/18 05:07:52;;;;;;;5.90;3.20;;;;;;;6.95;86.26;103513.59;5064248;28;20251;-53
2022/03/18 05:10:19;;;;;;;8.70;2.90;;;;;;;6.81;86.70;103514.47;5064377;28;20967;-54
2022/03/18 05:12:47;;;;;;;12.80;3.20;;;;;;;6.75;87.37;103514.13;5064284;28;20299;-55
2022/03/18 05:15:13;;;;;;;12.50;3.10;;;;;;;6.72;87.28;103529.59;5069496;28;20754;-53
2022/03/18 05:17:40;;;;;;;8.73;2.77;;;;;;;6.72;86.86;103534.81;5067502;28;20231;-53
2022/03/18 05:20:10;;;;;;;6.63;3.13;;;;;;;6.63;87.21;103535.16;5065064;28;20280;-53
2022/03/18 05:22:36;;;;;;;9.70;2.93;;;;;;;6.62;87.07;103549.91;5065360;28;20282;-53
2022/03/18 05:25:03;;;;;;;6.83;3.13;;;;;;;6.63;87.06;103553.44;5062023;28;20228;-53
2022/03/18 05:27:29;;;;;;;7.10;2.30;;;;;;;6.63;87.22;103551.75;5066663;28;20267;-52
2022/03/18 05:29:57;;;;;;;9.80;2.50;;;;;;;6.58;86.66;103553.16;5063747;28;20273;-53
2022/03/18 05:32:23;;;;;;;7.63;2.13;;;;;;;6.65;86.05;103562.28;5062604;28;20250;-51
2022/03/18 05:34:50;;;;;;;6.30;2.43;;;;;;;6.48;86.76;103571.69;5065064;28;20250;-52
2022/03/18 05:37:16;;;;;;;6.10;2.43;;;;;;;6.48;86.43;103579.50;5065794;28;20321;-53
2022/03/18 05:39:42;;;;;;;11.37;2.87;;;;;;;6.53;86.00;103585.94;5062782;28;20230;-52
2022/03/18 05:42:09;;;;;;;8.30;2.87;;;;;;;6.38;86.61;103584.97;5063189;28;20243;-52
2022/03/18 05:44:35;;;;;;;9.10;2.50;;;;;;;6.34;86.90;103590.81;5058743;28;20231;-52
2022/03/18 05:47:03;;;;;;;7.87;2.00;;;;;;;6.20;87.21;103593.44;5063130;28;20239;-52
2022/03/18 05:49:29;;;;;;;7.00;3.17;;;;;;;6.13;87.86;103595.56;5067309;28;20250;-52
2022/03/18 05:51:57;;;;;;;7.93;3.00;;;;;;;6.19;87.50;103596.88;5064528;28;20245;-52
2022/03/18 05:54:23;;;;;;;6.10;2.00;;;;;;;6.06;87.81;103609.94;5064197;28;20242;-52
2022/03/18 05:56:54;;;;;;;7.87;2.00;;;;;;;6.05;87.96;103610.75;5058992;28;20297;-52
2022/03/18 05:59:21;;;;;;;9.77;3.07;;;;;;;6.02;88.73;103613.16;5066919;28;20246;-53
2022/03/18 06:01:48;;;;;;;6.13;2.77;;;;;;;5.92;88.64;103609.03;5067073;28;20239;-52
2022/03/18 06:04:15;;;;;;;10.87;3.60;;;;;;;6.06;88.30;103612.53;5059417;28;20231;-52
2022/03/18 06:06:43;;;;;;;10.53;3.07;;;;;;;5.89;88.85;103618.34;5061950;28;20226;-53
2022/03/18 06:11:54;;;;;;;8.00;3.33;;;;;;;5.86;88.93;103621.66;5062712;28;20238;-52
2022/03/18 06:14:22;;;;;;;14.90;3.17;;;;;;;5.83;89.43;103625.78;5062871;28;20274;-53
2022/03/18 06:16:49;;;;;;;5.43;2.60;;;;;;;5.84;89.26;103624.97;5070233;28;20234;-53
2022/03/18 06:19:18;;;;;;;7.67;3.93;;;;;;;5.83;90.04;103625.78;5061908;28;20262;-52
2022/03/18 06:21:45;;;;;;;6.97;2.13;;;;;;;5.83;89.77;103639.72;5067847;28;20259;-53
2022/03/18 06:24:12;;;;;;;8.87;3.47;;;;;;;5.86;90.00;103639.00;5062220;28;20223;-51
2022/03/18 06:26:38;;;;;;;8.17;3.07;;;;;;;5.86;89.83;103649.41;5063148;28;20259;-52
2022/03/18 06:29:04;;;;;;;10.10;2.87;;;;;;;5.89;89.38;103647.91;5062639;28;20668;-52
2022/03/18 06:31:31;;;;;;;10.40;4.23;;;;;;;5.85;89.74;103658.06;5061565;28;20655;-54
2022/03/18 06:33:58;;;;;;;10.30;2.93;;;;;;;5.82;90.07;103660.47;5062627;28;20262;-51
2022/03/18 06:36:26;;;;;;;5.83;2.80;;;;;;;5.88;89.55;103663.47;5061765;28;20267;-51
2022/03/18 06:38:52;;;;;;;8.80;3.13;;;;;;;5.96;89.05;103667.50;5064853;28;20305;-53
2022/03/18 06:41:19;;;;;;;7.77;2.93;;;;;;;6.06;88.20;103669.00;5067679;28;20910;-52
2022/03/18 06:43:45;;;;;;;9.03;3.00;;;;;;;5.86;88.58;103671.22;5063101;28;20283;-53
2022/03/18 06:46:12;;;;;;;6.50;2.70;;;;;;;5.93;89.04;103670.84;5062978;28;20223;-54
2022/03/18 06:48:38;;;;;;;8.27;3.00;;;;;;;5.98;88.42;103686.78;5060392;28;20258;-50
2022/03/18 06:51:04;;;;;;;8.27;3.20;;;;;;;5.98;88.59;103682.47;5063554;28;20223;-52
2022/03/18 06:53:32;;;;;;;7.93;3.00;;;;;;;6.06;88.49;103689.88;5069435;28;20246;-53
2022/03/18 06:55:58;;;;;;;10.77;3.67;;;;;;;6.10;88.02;103690.16;5074125;28;20247;-53
2022/03/18 06:58:27;;;;;;;8.30;2.93;;;;;;;6.06;87.96;103685.56;5065174;28;20238;-53
2022/03/18 07:00:54;;;;;;;9.17;3.03;;;;;;;6.09;87.56;103688.38;5062713;28;20942;-53
2022/03/18 07:03:20;;;;;;;7.83;2.90;;;;;;;6.17;87.24;103684.53;5058482;28;20732;-52
2022/03/18 07:05:46;;;;;;;7.03;2.53;;;;;;;6.12;87.78;103691.19;5067752;28;20219;-53
2022/03/18 07:08:13;;;;;;;8.30;2.30;;;;;;;6.18;87.97;103682.88;5058977;28;20282;-51
2022/03/18 07:10:41;;;;;;;9.00;3.03;;;;;;;6.20;87.24;103689.06;5067440;28;20249;-52
2022/03/18 07:13:07;;;;;;;9.90;3.13;;;;;;;6.17;87.55;103689.75;5067526;28;20234;-52
2022/03/18 07:15:33;;;;;;;9.67;3.00;;;;;;;6.18;87.37;103686.38;5066431;28;20924;-53
2022/03/18 07:17:59;;;;;;;9.70;2.80;;;;;;;6.24;87.00;103698.88;5067001;28;20296;-51
2022/03/18 07:20:26;;;;;;;9.67;3.47;;;;;;;6.25;86.79;103695.50;5068843;28;20240;-54
2022/03/18 07:23:00;;;;;;;13.73;4.17;;;;;;;6.40;85.67;103706.00;5069283;28;20223;-53
2022/03/18 07:25:27;;;;;;;7.67;2.87;;;;;;;6.28;84.87;103713.03;5060796;28;20239;-53
2022/03/18 07:27:55;;;;;;;9.97;3.37;;;;;;;6.22;86.15;103717.06;5067098;28;20265;-51
2022/03/18 07:30:21;;;;;;;7.23;3.13;;;;;;;6.28;85.94;103713.03;5060132;28;20235;-54
2022/03/18 07:32:47;;;;;;;12.17;3.03;;;;;;;6.53;83.67;103711.22;5063782;28;20313;-53
2022/03/18 07:35:15;;;;;;;8.97;3.10;;;;;;;6.75;82.59;103709.94;5056333;28;20285;-51
2022/03/18 07:37:41;;;;;;;5.30;2.70;;;;;;;6.77;82.36;103710.94;5063453;28;20223;-54
2022/03/18 07:40:08;;;;;;;13.07;3.00;;;;;;;6.62;81.66;103717.00;5065330;28;20856;-53
2022/03/18 07:42:40;;;;;;;11.83;3.03;;;;;;;6.71;82.95;103721.00;5057225;28;20227;-52
2022/03/18 07:45:09;;;;;;;8.23;3.10;;;;;;;6.88;82.10;103728.16;5065298;28;20252;-52
2022/03/18 07:47:36;;;;;;;6.43;2.33;;;;;;;6.92;80.94;103738.03;5062430;28;20235;-53
2022/03/18 07:50:02;;;;;;;7.40;2.83;;;;;;;6.91;81.25;103746.63;5066279;28;20261;-52
2022/03/18 07:52:29;;;;;;;6.93;2.70;;;;;;;6.92;81.86;103751.09;5060644;28;20231;-53
2022/03/18 07:54:55;;;;;;;11.23;3.03;;;;;;;7.08;82.23;103751.19;5064503;28;20223;-53
2022/03/18 07:57:21;;;;;;;7.37;2.97;;;;;;;7.54;77.68;103759.22;5063060;28;20258;-52
2022/03/18 07:59:48;;;;;;;12.03;3.47;;;;;;;7.49;76.98;103757.16;5064601;28;20321;-53
2022/03/18 08:02:15;;;;;;;8.40;2.43;;;;;;;7.73;76.78;103760.34;5066196;28;20324;-53
2022/03/18 08:04:41;;;;;;;9.17;3.27;;;;;;;7.73;77.28;103756.03;5067696;28;20343;-53
2022/03/18 08:07:08;;;;;;;9.77;3.63;;;;;;;7.92;76.44;103763.22;5064675;28;20228;-52
2022/03/18 08:09:34;;;;;;;10.20;3.10;;;;;;;8.11;75.07;103759.97;5064875;28;20297;-53
2022/03/18 08:12:00;;;;;;;11.03;3.03;;;;;;;8.10;74.72;103764.28;5063247;28;20254;-52
2022/03/18 08:14:27;;;;;;;9.60;2.73;;;;;;;8.16;75.20;103762.84;5068367;28;20302;-53
2022/03/18 08:16:53;;;;;;;11.07;2.83;;;;;;;8.38;73.66;103755.44;5070114;28;20292;-53
2022/03/18 08:19:21;;;;;;;11.30;4.03;;;;;;;8.59;71.87;103764.50;5068588;28;20269;-52
2022/03/18 08:21:47;;;;;;;7.23;2.63;;;;;;;8.58;71.15;103770.56;5065789;28;20369;-52
2022/03/18 08:24:13;;;;;;;12.47;3.17;;;;;;;8.52;71.46;103766.69;5061843;28;20235;-53
2022/03/18 08:26:40;;;;;;;7.17;2.57;;;;;;;8.49;72.50;103770.03;5063893;28;20247;-51
2022/03/18 08:29:07;;;;;;;7.17;2.43;;;;;;;8.57;72.44;103774.00;5064088;28;20247;-53
2022/03/18 08:31:33;;;;;;;9.40;3.13;;;;;;;8.75;70.65;103778.47;5060457;28;21025;-53
2022/03/18 08:34:00;;;;;;;8.83;2.83;;;;;;;8.74;70.75;103784.50;5060993;28;20303;-53
2022/03/18 08:36:27;;;;;;;6.03;2.73;;;;;;;8.78;70.62;103783.88;5066204;28;20270;-53
2022/03/18 08:38:54;;;;;;;7.53;2.67;;;;;;;9.04;70.26;103780.94;5062570;28;20288;-53
2022/03/18 08:41:20;;;;;;;5.40;2.70;;;;;;;9.19;69.17;103779.97;5064009;28;20728;-52
2022/03/18 08:43:46;;;;;;;11.90;3.47;;;;;;;9.40;68.00;103788.97;5064966;28;20285;-52
2022/03/18 08:46:13;;;;;;;13.47;3.13;;;;;;;9.64;66.32;103781.50;5065949;28;20255;-51
2022/03/18 08:48:39;;;;;;;6.23;2.53;;;;;;;9.69;65.79;103793.16;5063676;28;20299;-52
2022/03/18 08:51:05;;;;;;;5.23;2.67;;;;;;;9.43;66.12;103799.63;5064258;27;20265;-52
2022/03/18 08:53:33;;;;;;;12.07;3.23;;;;;;;9.44;66.52;103809.31;5065622;28;20259;-53
2022/03/18 08:56:00;;;;;;;7.47;3.40;;;;;;;9.44;67.43;103809.31;5065286;28;20696;-53
2022/03/18 08:58:26;;;;;;;6.70;2.47;;;;;;;9.35;66.33;103816.69;5063503;28;20322;-53
2022/03/18 09:00:53;;;;;;;8.90;2.67;;;;;;;9.38;68.00;103816.84;5059570;28;20316;-53
2022/03/18 09:03:19;;;;;;;9.87;2.83;;;;;;;9.29;68.54;103817.25;5060276;28;20262;-53
2022/03/18 09:05:45;;;;;;;7.53;3.03;;;;;;;9.27;67.97;103818.00;5063531;28;20265;-54
2022/03/18 09:08:13;;;;;;;9.83;3.30;;;;;;;9.53;68.24;103817.66;5067472;28;20239;-53
2022/03/18 09:10:41;;;;;;;7.23;2.70;;;;;;;9.64;68.07;103820.84;5072654;28;20235;-54
2022/03/18 09:13:07;;;;;;;10.73;3.20;;;;;;;9.56;67.57;103827.41;5066483;28;20223;-53
2022/03/18 09:15:34;;;;;;;9.07;3.50;;;;;;;9.83;67.84;103827.03;5062233;28;20232;-52
2022/03/18 09:18:00;;;;;;;13.83;4.30;;;;;;;9.81;66.96;103826.97;5062630;28;20464;-52
2022/03/18 09:20:27;;;;;;;10.07;3.10;;;;;;;10.01;66.47;103828.00;5062387;28;20262;-53
2022/03/18 09:22:53;;;;;;;9.93;3.37;;;;;;;10.25;65.39;103833.59;5063986;28;20251;-53
2022/03/18 09:25:20;;;;;;;7.33;3.10;;;;;;;10.30;66.15;103836.50;5062877;28;20255;-53
2022/03/18 09:27:48;;;;;;;7.40;3.10;;;;;;;10.24;64.86;103847.53;5063229;28;20223;-52
2022/03/18 09:30:15;;;;;;;7.83;3.93;;;;;;;10.63;64.08;103835.50;5060675;28;20222;-52
2022/03/18 09:32:42;;;;;;;7.00;2.97;;;;;;;10.94;63.50;103845.78;5067205;28;21867;-52
2022/03/18 09:35:09;;;;;;;9.07;3.57;;;;;;;11.33;60.39;103839.66;5065309;28;20753;-53
2022/03/18 09:37:35;;;;;;;11.03;3.73;;;;;;;11.40;59.41;103837.38;5065145;28;20231;-52
2022/03/18 09:40:04;;;;;;;8.47;3.77;;;;;;;11.33;59.93;103840.56;5066985;28;20231;-53
2022/03/18 09:42:32;;;;;;;6.10;3.23;;;;;;;11.24;61.06;103845.41;5064033;28;20298;-51
2022/03/18 09:44:59;;;;;;;7.27;3.37;;;;;;;10.98;63.50;103852.97;5075357;28;20291;-50
2022/03/18 09:47:27;;;;;;;8.30;4.17;;;;;;;11.04;61.78;103868.16;5064352;28;20262;-53
2022/03/18 09:49:54;;;;;;;15.70;4.77;;;;;;;11.41;59.45;103865.50;5061450;28;20759;-54
2022/03/18 09:52:20;;;;;;;7.83;3.70;;;;;;;11.38;59.73;103854.84;5063699;28;20283;-53
2022/03/18 09:54:47;;;;;;;9.97;4.07;;;;;;;11.18;60.77;103855.66;5070555;28;20219;-53
2022/03/18 09:57:13;;;;;;;11.60;4.63;;;;;;;11.26;60.58;103861.25;5070977;28;20242;-52
2022/03/18 09:59:40;;;;;;;10.80;5.53;;;;;;;11.42;60.55;103859.41;5071007;28;20262;-53
2022/03/18 10:02:26;;;;;;;12.60;5.30;;;;;;;11.49;60.58;103857.06;5063570;28;20231;-53
2022/03/18 10:04:53;;;;;;;14.97;4.73;;;;;;;11.53;60.73;103854.63;5077016;28;20766;-53
2022/03/18 10:07:21;;;;;;;9.33;3.93;;;;;;;11.49;61.11;103852.69;5063540;28;20231;-53
2022/03/18 10:09:47;;;;;;;8.23;4.63;;;;;;;11.40;60.80;103855.78;5064474;28;20618;-51
2022/03/18 10:12:28;;;;;;;7.37;3.77;;;;;;;11.66;59.39;103853.47;5062590;28;20250;-51
2022/03/18 10:15:03;;;;;;;11.35;4.10;;;;;;;11.71;58.48;103857.19;5073755;28;20223;-54
2022/03/18 10:17:40;;;;;;;8.70;4.67;;;;;;;11.66;58.88;103859.63;5066993;28;20230;-53
2022/03/18 10:20:08;;;;;;;9.50;4.35;;;;;;;11.86;57.62;103860.56;5055504;28;20621;-53
2022/03/18 10:22:36;;;;;;;10.07;4.47;;;;;;;11.87;56.74;103862.34;5064296;28;20231;-52
2022/03/18 10:25:03;;;;;;;10.50;4.97;;;;;;;11.63;57.33;103851.59;5049583;28;20301;-53
2022/03/18 10:27:32;;;;;;;9.57;4.00;;;;;;;11.36;58.33;103848.59;5069842;28;20647;-53
2022/03/18 10:29:58;;;;;;;8.87;4.33;;;;;;;11.53;57.61;103848.47;5058040;28;20756;-54
2022/03/18 10:32:27;;;;;;;10.07;4.50;;;;;;;11.35;58.62;103849.44;5064813;28;20239;-53
2022/03/18 10:37:41;;;;;;;8.30;4.33;;;;;;;11.30;58.24;103850.97;5063675;28;20249;-52
2022/03/18 10:40:09;;;;;;;11.97;4.27;;;;;;;11.34;58.42;103842.38;5064756;28;20877;-54
2022/03/18 10:42:36;;;;;;;12.13;4.27;;;;;;;11.46;57.60;103848.19;5062474;28;21101;-53
2022/03/18 10:45:03;;;;;;;14.63;4.53;;;;;;;11.67;56.18;103850.00;5066241;28;20673;-53
2022/03/18 10:47:31;;;;;;;14.03;3.70;;;;;;;11.94;54.37;103847.72;5060459;28;20519;-53
2022/03/18 10:50:17;;;;;;;12.82;3.88;;;;;;;12.01;54.48;103848.88;5062453;28;20280;-53
2022/03/18 10:53:02;;;;;;;11.93;4.00;;;;;;;12.04;54.50;103849.00;5062664;28;20227;-54
2022/03/18 10:55:30;;;;;;;7.93;3.42;;;;;;;12.01;53.41;103844.50;5061752;28;20703;-53
2022/03/18 10:57:59;;;;;;;7.53;3.20;;;;;;;12.14;53.45;103849.47;5056593;28;20227;-53
2022/03/18 11:00:27;;;;;;;5.03;3.08;;;;;;;12.20;53.29;103856.72;5058657;28;20230;-53
2022/03/18 11:02:58;;;;;;;9.05;3.58;;;;;;;12.05;52.46;103854.34;5064047;28;20318;-53
2022/03/18 11:05:26;;;;;;;8.38;3.35;;;;;;;12.26;52.17;103857.00;5065824;28;20317;-53
2022/03/18 11:07:54;;;;;;;6.45;3.10;;;;;;;12.59;50.65;103856.59;5061907;28;20879;-54
2022/03/18 11:13:07;;;;;;;8.73;2.78;;;;;;;12.70;49.73;103844.72;5060675;28;20271;-53
2022/03/18 11:15:35;;;;;;;5.22;3.28;;;;;;;12.70;50.82;103850.00;5063826;28;20227;-53
2022/03/18 11:18:03;;;;;;;9.02;3.40;;;;;;;12.73;49.49;103852.75;5062230;28;20668;-53
2022/03/18 11:20:33;;;;;;;8.70;3.38;;;;;;;12.78;48.97;103848.59;5065549;28;20239;-53
2022/03/18 11:22:59;;;;;;;4.75;2.58;;;;;;;12.59;53.63;103857.47;5065031;28;20230;-51
2022/03/18 11:25:26;;;;;;;6.47;3.65;;;;;;;12.87;49.41;103855.94;5066525;28;20234;-52
2022/03/18 11:27:53;;;;;;;9.18;2.58;;;;;;;13.22;45.74;103851.16;5060076;28;20238;-52
2022/03/18 11:30:21;;;;;;;4.15;2.13;;;;;;;13.46;45.47;103845.94;5061909;28;20883;-52
2022/03/18 11:33:18;;;;;;;5.38;2.70;;;;;;;13.36;45.38;103845.56;5062581;28;20648;-52
2022/03/18 11:36:04;;;;;;;6.45;2.83;;;;;;;13.44;44.39;103840.56;5067050;28;20224;-52
2022/03/18 11:38:56;;;;;;;6.40;2.30;;;;;;;13.43;44.25;103835.25;5061933;28;20229;-53
2022/03/18 11:41:25;;;;;;;5.22;2.92;;;;;;;13.44;44.99;103837.94;5060148;28;20239;-52
2022/03/18 11:43:53;;;;;;;7.63;2.30;;;;;;;13.46;44.38;103840.66;5063848;28;20235;-52
2022/03/18 11:46:22;;;;;;;6.97;2.85;;;;;;;13.33;44.90;103834.91;5066865;28;20243;-54